Time;durP1;ratioP1;P1;durP2;ratioP2;P2;SDS_P1;SDS_P2;PMS_P1;PMS_P2;Temp;Humidity;BMP_temperature;BMP_pressure;BME280_temperature;BME280_humidity;BME280_pressure;Samples;Min_cycle;Max_cycle;Signal;HPM_P1;HPM_P2
2021/10/29 00:00:55;;;;;;;12.35;5.15;;;;;;;21.30;52.91;98795.81;4436746;32;20034;-69
2021/10/29 00:03:22;;;;;;;11.88;5.22;;;;;;;21.43;52.71;98806.41;4431548;32;20069;-69
2021/10/29 00:05:48;;;;;;;9.07;4.95;;;;;;;21.72;52.13;98799.38;4432584;32;20084;-69
2021/10/29 00:08:14;;;;;;;7.37;4.37;;;;;;;21.74;51.87;98807.44;4435530;32;20063;-69
2021/10/29 00:10:40;;;;;;;8.77;4.87;;;;;;;22.12;50.78;98805.63;4427362;32;20088;-69
2021/10/29 00:13:05;;;;;;;10.32;4.75;;;;;;;22.14;50.64;98797.19;4432148;32;20070;-69
2021/10/29 00:15:32;;;;;;;8.32;4.00;;;;;;;22.18;50.82;98814.81;4430336;32;20144;-69
2021/10/29 00:17:58;;;;;;;7.50;4.62;;;;;;;22.47;49.91;98805.59;4432539;32;20034;-69
2021/10/29 00:20:24;;;;;;;11.68;4.93;;;;;;;22.34;50.49;98797.13;4432631;32;20071;-69
2021/10/29 00:22:50;;;;;;;7.60;4.10;;;;;;;22.73;50.01;98790.25;4433612;32;20101;-69
2021/10/29 00:25:16;;;;;;;8.50;4.30;;;;;;;22.68;49.86;98786.22;4432897;32;20052;-69
2021/10/29 00:27:42;;;;;;;11.18;4.40;;;;;;;22.87;49.78;98780.13;4432249;32;20395;-69
2021/10/29 00:30:08;;;;;;;10.43;4.82;;;;;;;22.88;49.58;98770.19;4424884;32;20060;-69
2021/10/29 00:32:34;;;;;;;10.77;4.80;;;;;;;22.81;49.65;98756.59;4424396;32;20069;-69
2021/10/29 00:35:01;;;;;;;7.47;4.10;;;;;;;22.71;49.95;98758.50;4425767;32;20077;-69
2021/10/29 00:37:30;;;;;;;6.57;4.40;;;;;;;22.27;50.40;98760.59;4422912;32;20379;-69
2021/10/29 00:39:56;;;;;;;7.62;4.05;;;;;;;22.54;50.20;98763.97;4424872;32;20073;-69
2021/10/29 00:42:21;;;;;;;8.73;4.60;;;;;;;22.58;50.09;98764.41;4420812;32;20403;-69
2021/10/29 00:44:47;;;;;;;8.68;4.50;;;;;;;22.56;50.05;98767.81;4425064;32;20092;-69
2021/10/29 00:47:13;;;;;;;8.50;4.70;;;;;;;22.54;50.07;98763.97;4420901;32;20060;-69
2021/10/29 00:49:38;;;;;;;10.70;4.97;;;;;;;22.71;49.83;98765.00;4422317;32;20071;-69
2021/10/29 00:52:05;;;;;;;9.68;4.43;;;;;;;22.50;50.26;98767.22;4425074;32;20065;-69
2021/10/29 00:54:30;;;;;;;7.72;4.37;;;;;;;22.51;50.16;98763.03;4420431;32;20061;-68
2021/10/29 00:56:56;;;;;;;10.35;4.40;;;;;;;22.62;49.84;98753.31;4423185;32;20061;-68
2021/10/29 00:59:22;;;;;;;5.82;3.92;;;;;;;22.91;49.09;98755.47;4422365;32;20030;-68
2021/10/29 01:01:48;;;;;;;7.20;4.28;;;;;;;22.97;49.09;98753.19;4427350;32;20089;-68
2021/10/29 01:04:15;;;;;;;10.38;4.60;;;;;;;23.12;48.99;98752.44;4423720;32;20037;-68
2021/10/29 01:06:42;;;;;;;9.00;4.50;;;;;;;23.17;48.63;98742.87;4426141;32;20085;-68
2021/10/29 01:09:08;;;;;;;9.45;5.00;;;;;;;22.99;48.89;98741.94;4422844;32;20508;-68
2021/10/29 01:11:34;;;;;;;8.98;4.75;;;;;;;23.21;48.46;98749.00;4425377;32;20050;-69
2021/10/29 01:14:01;;;;;;;8.15;4.00;;;;;;;23.32;48.42;98742.94;4425117;32;20068;-69
2021/10/29 01:16:26;;;;;;;10.90;4.35;;;;;;;23.48;48.07;98733.72;4422534;32;20374;-68
2021/10/29 01:18:52;;;;;;;6.40;4.78;;;;;;;23.41;48.34;98740.22;4424237;32;20049;-68
2021/10/29 01:21:18;;;;;;;8.07;4.22;;;;;;;23.32;48.50;98740.81;4422029;32;20073;-68
2021/10/29 01:23:44;;;;;;;9.45;4.30;;;;;;;23.40;48.41;98740.81;4420819;32;20558;-68
2021/10/29 01:26:15;;;;;;;12.80;4.32;;;;;;;23.35;48.78;98730.28;4423642;32;20096;-69
2021/10/29 01:28:42;;;;;;;8.55;4.45;;;;;;;23.40;48.89;98723.56;4423342;32;20073;-69
2021/10/29 01:31:08;;;;;;;13.18;4.87;;;;;;;23.03;49.89;98727.19;4423778;32;20071;-69
2021/10/29 01:33:35;;;;;;;8.38;4.25;;;;;;;23.06;49.68;98711.69;4425326;32;20073;-68
2021/10/29 01:36:01;;;;;;;7.87;4.15;;;;;;;23.08;49.93;98723.38;4423964;32;20073;-69
2021/10/29 01:38:32;;;;;;;9.15;4.30;;;;;;;23.04;50.07;98720.13;4423446;32;20508;-68
2021/10/29 01:40:58;;;;;;;7.22;3.85;;;;;;;22.95;50.46;98724.31;4415543;32;20038;-68
2021/10/29 01:43:24;;;;;;;9.82;4.62;;;;;;;22.91;50.52;98715.31;4421012;32;20146;-67
2021/10/29 01:45:49;;;;;;;9.10;4.18;;;;;;;22.71;51.69;98698.28;4422198;32;20077;-68
2021/10/29 01:48:15;;;;;;;8.48;3.95;;;;;;;22.95;50.90;98695.63;4421221;32;20422;-67
2021/10/29 01:50:41;;;;;;;7.18;3.80;;;;;;;22.86;50.99;98698.31;4419343;32;20042;-67
2021/10/29 01:53:07;;;;;;;5.60;3.42;;;;;;;22.91;50.74;98683.00;4422911;32;20069;-67
2021/10/29 01:55:32;;;;;;;7.25;3.65;;;;;;;22.85;50.73;98659.47;4425789;32;20046;-68
2021/10/29 01:57:58;;;;;;;6.75;3.65;;;;;;;22.91;50.85;98663.69;4423885;32;20325;-68
2021/10/29 02:00:23;;;;;;;7.35;3.72;;;;;;;22.79;50.96;98670.38;4421760;32;20073;-68
2021/10/29 02:02:49;;;;;;;6.85;3.17;;;;;;;23.00;50.37;98682.44;4423191;32;20057;-69
2021/10/29 02:05:15;;;;;;;12.18;3.55;;;;;;;22.80;50.95;98671.91;4422153;32;20101;-68
2021/10/29 02:07:40;;;;;;;9.02;3.83;;;;;;;22.90;50.57;98667.13;4422721;32;20033;-67
2021/10/29 02:10:07;;;;;;;9.43;3.20;;;;;;;22.96;50.69;98656.25;4420557;32;20105;-68
2021/10/29 02:12:32;;;;;;;6.20;3.25;;;;;;;23.08;50.30;98652.44;4422338;32;20048;-68
2021/10/29 02:14:58;;;;;;;4.57;2.62;;;;;;;23.09;50.11;98641.69;4420824;32;20148;-68
2021/10/29 02:17:25;;;;;;;6.68;3.10;;;;;;;22.99;50.26;98638.66;4423854;32;20077;-68
2021/10/29 02:19:52;;;;;;;5.82;2.90;;;;;;;23.10;50.06;98632.50;4422213;32;21716;-68
2021/10/29 02:22:18;;;;;;;6.87;2.83;;;;;;;23.17;49.88;98630.97;4421210;32;20099;-68
2021/10/29 02:24:44;;;;;;;5.35;2.70;;;;;;;22.99;50.04;98641.53;4420999;32;21484;-68
2021/10/29 02:27:09;;;;;;;5.55;2.55;;;;;;;23.19;49.73;98636.87;4418752;32;20116;-68
2021/10/29 02:29:36;;;;;;;4.03;2.60;;;;;;;22.98;50.19;98630.63;4423428;32;20068;-69
2021/10/29 02:32:02;;;;;;;4.32;2.42;;;;;;;23.02;50.03;98622.37;4420856;32;20045;-69
2021/10/29 02:34:28;;;;;;;3.42;2.37;;;;;;;22.51;51.03;98621.78;4422403;32;20573;-69
2021/10/29 02:36:54;;;;;;;3.75;2.30;;;;;;;22.70;50.69;98625.09;4422330;32;20120;-69
2021/10/29 02:39:19;;;;;;;4.35;2.30;;;;;;;22.68;50.76;98624.88;4419865;32;20135;-69
2021/10/29 02:41:45;;;;;;;3.67;2.28;;;;;;;22.82;50.20;98629.84;4425114;32;20061;-69
2021/10/29 02:44:11;;;;;;;5.70;2.20;;;;;;;22.49;50.97;98608.00;4421872;32;20186;-69
2021/10/29 02:46:37;;;;;;;2.92;2.03;;;;;;;22.61;50.95;98614.19;4422022;32;20060;-68
2021/10/29 02:49:04;;;;;;;4.65;2.15;;;;;;;22.65;50.84;98612.47;4422541;32;20062;-69
2021/10/29 02:51:31;;;;;;;6.50;1.83;;;;;;;22.94;50.62;98610.16;4423016;32;20112;-69
2021/10/29 02:53:59;;;;;;;4.07;1.98;;;;;;;22.81;50.72;98611.13;4422359;32;20118;-68
2021/10/29 02:56:24;;;;;;;4.22;2.15;;;;;;;23.08;50.59;98600.00;4422228;32;20387;-69
2021/10/29 02:58:50;;;;;;;6.05;2.37;;;;;;;22.97;50.25;98601.16;4422380;32;20088;-69
2021/10/29 03:01:16;;;;;;;5.20;1.90;;;;;;;22.97;50.55;98597.53;4418180;32;20478;-69
2021/10/29 03:03:41;;;;;;;3.80;2.30;;;;;;;22.90;51.08;98598.31;4421876;32;20069;-68
2021/10/29 03:06:07;;;;;;;4.85;2.58;;;;;;;23.08;50.57;98588.53;4418497;32;20082;-68
2021/10/29 03:08:33;;;;;;;4.18;2.55;;;;;;;23.01;50.71;98592.94;4426943;32;20500;-68
2021/10/29 03:10:59;;;;;;;6.10;2.72;;;;;;;22.99;50.66;98592.75;4422907;32;20038;-68
2021/10/29 03:13:25;;;;;;;10.85;3.33;;;;;;;22.91;50.73;98585.47;4419368;32;20062;-68
2021/10/29 03:15:51;;;;;;;8.23;2.72;;;;;;;22.78;51.46;98572.12;4420410;32;20389;-68
2021/10/29 03:18:18;;;;;;;6.37;3.15;;;;;;;22.68;51.64;98556.06;4421962;32;20042;-68
2021/10/29 03:20:45;;;;;;;7.12;2.50;;;;;;;22.59;51.83;98542.31;4422180;32;20513;-69
2021/10/29 03:23:13;;;;;;;4.65;2.40;;;;;;;22.58;52.45;98546.53;4421316;32;20042;-69
2021/10/29 03:25:40;;;;;;;5.07;2.60;;;;;;;22.53;52.23;98559.72;4423386;32;21221;-69
2021/10/29 03:28:06;;;;;;;8.15;3.28;;;;;;;22.60;52.49;98538.09;4420472;32;20148;-69
2021/10/29 03:30:33;;;;;;;5.60;2.10;;;;;;;22.43;52.46;98529.28;4420532;32;20033;-69
2021/10/29 03:32:59;;;;;;;4.78;2.03;;;;;;;22.54;52.10;98523.19;4422283;32;20038;-69
2021/10/29 03:35:25;;;;;;;5.22;1.95;;;;;;;22.14;52.63;98527.91;4425699;32;20063;-69
2021/10/29 03:43:22;;;;;;;4.07;1.58;;;;;;;22.65;51.49;98512.13;3982912;32;15022316;-70
2021/10/29 03:48:32;;;;;;;3.25;1.45;;;;;;;22.54;51.64;98503.12;3957180;32;15722530;-70
2021/10/29 03:51:03;;;;;;;;;;;;;;;22.54;51.64;98503.12;4435618;32;20075;-70
2021/10/29 03:53:40;;;;;;;2.78;1.02;;;;;;;22.73;50.79;98492.78;4436123;32;20045;-69
2021/10/29 03:56:08;;;;;;;2.87;1.35;;;;;;;22.01;52.17;98485.13;4433377;32;20534;-69
2021/10/29 03:58:33;;;;;;;7.28;1.40;;;;;;;22.09;51.91;98480.94;4436716;32;20068;-69
2021/10/29 04:00:59;;;;;;;7.03;1.50;;;;;;;21.81;52.87;98477.50;4433068;32;20034;-69
2021/10/29 04:03:25;;;;;;;6.80;1.73;;;;;;;22.02;52.46;98464.53;4436691;32;20026;-69
2021/10/29 04:05:52;;;;;;;4.43;1.50;;;;;;;21.82;53.26;98458.97;4432644;32;20052;-70
2021/10/29 04:08:18;;;;;;;4.50;1.85;;;;;;;22.17;52.57;98449.44;4434869;32;20073;-70
2021/10/29 04:10:45;;;;;;;6.70;1.75;;;;;;;21.65;53.51;98457.38;4433064;32;20064;-70
2021/10/29 04:13:12;;;;;;;4.62;2.15;;;;;;;21.34;54.48;98470.09;4432376;32;20017;-70
2021/10/29 04:15:40;;;;;;;6.12;2.15;;;;;;;21.60;53.89;98440.41;4433653;32;20033;-70
2021/10/29 04:18:08;;;;;;;5.25;2.20;;;;;;;21.11;55.11;98432.03;4436343;32;20486;-70
2021/10/29 04:20:34;;;;;;;6.87;2.67;;;;;;;21.66;54.21;98435.22;4437721;32;20052;-69
2021/10/29 04:23:01;;;;;;;4.60;2.75;;;;;;;21.18;54.82;98431.31;4432710;32;20072;-70
2021/10/29 04:25:27;;;;;;;13.43;3.58;;;;;;;21.26;55.12;98434.94;4433790;32;20073;-69
2021/10/29 04:28:05;;;;;;;13.38;3.72;;;;;;;21.14;55.05;98430.16;4435586;32;20021;-69
2021/10/29 04:30:31;;;;;;;13.13;3.33;;;;;;;21.02;55.44;98426.84;4439121;32;20097;-70
2021/10/29 04:32:58;;;;;;;10.20;3.75;;;;;;;21.05;55.41;98422.87;4435523;32;20487;-69
2021/10/29 04:35:26;;;;;;;7.50;3.42;;;;;;;20.88;56.20;98413.22;4436118;32;20423;-69
2021/10/29 04:37:52;;;;;;;16.05;4.70;;;;;;;21.27;55.21;98407.87;4432107;32;20811;-69
2021/10/29 04:40:18;;;;;;;8.77;4.35;;;;;;;20.78;56.36;98409.38;4433984;32;20088;-69
2021/10/29 04:42:45;;;;;;;11.27;4.28;;;;;;;20.92;55.81;98411.53;4433275;32;20091;-69
2021/10/29 04:45:11;;;;;;;15.23;4.30;;;;;;;21.16;55.27;98407.47;4437546;32;20128;-69
2021/10/29 04:47:37;;;;;;;8.60;4.70;;;;;;;20.85;55.76;98397.22;4437202;32;20046;-69
2021/10/29 04:50:05;;;;;;;13.48;4.45;;;;;;;21.26;54.82;98409.22;4433855;32;20059;-69
2021/10/29 04:52:31;;;;;;;11.95;4.20;;;;;;;21.58;54.22;98395.19;4434376;32;21238;-70
2021/10/29 04:54:57;;;;;;;9.77;4.68;;;;;;;21.02;55.14;98394.66;4436545;32;20041;-70
2021/10/29 04:57:23;;;;;;;12.02;4.60;;;;;;;21.12;54.90;98392.78;4435505;32;20422;-70
2021/10/29 04:59:48;;;;;;;9.75;4.37;;;;;;;20.76;55.86;98386.31;4421400;32;20033;-69
2021/10/29 05:02:14;;;;;;;14.23;4.75;;;;;;;20.70;55.76;98377.13;4426015;32;20094;-69
2021/10/29 05:04:41;;;;;;;9.55;4.57;;;;;;;20.90;55.30;98379.13;4425113;32;20037;-69
2021/10/29 05:07:06;;;;;;;13.30;4.05;;;;;;;21.03;55.11;98368.34;4423663;32;20164;-70
2021/10/29 05:09:32;;;;;;;12.77;4.05;;;;;;;21.07;55.02;98363.03;4423079;32;20061;-70
2021/10/29 05:11:58;;;;;;;11.43;4.25;;;;;;;21.13;54.36;98371.41;4426124;32;20099;-70
2021/10/29 05:14:24;;;;;;;12.68;4.10;;;;;;;21.24;54.38;98359.63;4419579;32;20077;-70
2021/10/29 05:16:50;;;;;;;9.65;4.28;;;;;;;21.29;54.28;98370.87;4421403;32;20101;-69
2021/10/29 05:19:17;;;;;;;10.13;4.72;;;;;;;20.66;55.67;98340.34;4426334;32;20084;-69
2021/10/29 05:21:43;;;;;;;9.90;4.07;;;;;;;20.48;56.11;98341.41;4423275;32;20095;-69
2021/10/29 05:24:09;;;;;;;8.18;4.05;;;;;;;20.61;55.83;98341.28;4418115;32;20460;-69
2021/10/29 05:26:36;;;;;;;9.63;4.47;;;;;;;20.67;55.55;98347.59;4421891;32;20018;-69
2021/10/29 05:29:03;;;;;;;13.25;4.93;;;;;;;20.98;54.80;98339.91;4422560;32;20106;-69
2021/10/29 05:31:28;;;;;;;9.32;3.53;;;;;;;20.77;55.03;98339.25;4425034;32;20078;-69
2021/10/29 05:33:54;;;;;;;10.77;4.18;;;;;;;20.44;55.72;98346.75;4425247;32;20393;-69
2021/10/29 05:36:20;;;;;;;12.10;4.20;;;;;;;19.93;56.86;98330.75;4421802;32;20061;-69
2021/10/29 05:38:46;;;;;;;10.40;3.92;;;;;;;19.97;56.78;98329.09;4407933;32;20592;-69
2021/10/29 05:41:12;;;;;;;7.20;4.12;;;;;;;20.14;56.44;98322.94;4422477;32;20096;-69
2021/10/29 05:43:38;;;;;;;5.55;3.20;;;;;;;20.34;55.66;98319.25;4419523;32;20064;-69
2021/10/29 05:46:04;;;;;;;6.75;4.03;;;;;;;19.84;56.63;98326.34;4418922;32;20097;-69
2021/10/29 05:48:30;;;;;;;8.02;3.83;;;;;;;20.09;56.22;98321.00;4409189;32;20021;-70
2021/10/29 05:50:56;;;;;;;9.48;4.28;;;;;;;20.10;56.29;98326.16;4422005;32;20070;-69
2021/10/29 05:53:51;;;;;;;10.77;3.70;;;;;;;20.10;56.15;98311.09;4423203;32;20025;-68
2021/10/29 05:56:07;;;;;;;11.40;4.18;;;;;;;19.77;56.96;98318.50;4421777;32;20498;-67
2021/10/29 05:58:35;;;;;;;11.98;3.72;;;;;;;20.08;56.42;98313.75;4424822;32;20049;-67
2021/10/29 06:01:01;;;;;;;8.05;3.85;;;;;;;19.78;56.88;98323.63;4409047;32;20076;-67
2021/10/29 06:03:27;;;;;;;8.57;4.00;;;;;;;19.85;56.54;98305.03;4423645;32;20053;-67
2021/10/29 06:05:55;;;;;;;7.68;4.25;;;;;;;20.24;55.73;98304.72;4423745;32;20450;-67
2021/10/29 06:08:22;;;;;;;10.25;4.30;;;;;;;20.14;56.11;98311.53;4420567;32;20383;-67
2021/10/29 06:10:48;;;;;;;9.73;5.00;;;;;;;20.02;56.20;98296.78;4421140;32;20069;-67
2021/10/29 06:13:14;;;;;;;10.23;4.07;;;;;;;20.17;55.98;98304.69;4421529;32;20022;-67
2021/10/29 06:15:43;;;;;;;10.98;4.90;;;;;;;20.06;56.28;98288.59;4422291;32;20108;-67
2021/10/29 06:18:11;;;;;;;14.02;4.93;;;;;;;20.05;55.87;98287.09;4419218;32;20042;-67
2021/10/29 06:20:38;;;;;;;11.57;5.12;;;;;;;19.98;56.01;98281.31;4422161;32;20083;-67
2021/10/29 06:23:07;;;;;;;8.95;4.82;;;;;;;19.83;56.53;98281.22;4405974;32;20343;-67
2021/10/29 06:25:41;;;;;;;9.35;4.47;;;;;;;20.06;55.83;98277.19;4419989;32;20044;-67
2021/10/29 06:30:47;;;;;;;13.90;5.20;;;;;;;20.63;54.33;98260.72;3979674;32;15137412;-68
2021/10/29 06:33:15;;;;;;;12.02;4.90;;;;;;;20.11;55.12;98255.50;4438063;32;20414;-68
2021/10/29 06:35:42;;;;;;;9.20;4.57;;;;;;;20.35;54.63;98261.56;4436266;32;20037;-68
2021/10/29 06:38:10;;;;;;;11.45;5.18;;;;;;;19.62;56.16;98269.88;4438200;32;20085;-67
2021/10/29 06:40:44;;;;;;;10.05;4.90;;;;;;;20.30;54.98;98268.19;4440898;32;20095;-67
2021/10/29 06:43:18;;;;;;;11.27;4.68;;;;;;;20.00;54.90;98270.87;4437222;32;20045;-67
2021/10/29 06:48:31;;;;;;;11.43;5.07;;;;;;;20.77;53.39;98257.13;3987654;32;15024483;-67
2021/10/29 06:52:31;;;;;;;10.80;4.45;;;;;;;20.77;53.39;98257.13;4433504;32;20139;-67
2021/10/29 07:40:37;;;;;;;13.47;4.60;;;;;;;20.81;52.03;98243.25;4435933;32;20003;-68
2021/10/29 07:43:05;;;;;;;9.65;4.65;;;;;;;20.77;51.75;98239.22;4431186;32;20017;-68
2021/10/29 07:45:32;;;;;;;11.73;4.65;;;;;;;20.41;52.39;98236.47;4433481;32;20029;-68
2021/10/29 07:47:58;;;;;;;9.93;4.43;;;;;;;20.36;52.32;98234.53;4439267;32;20092;-68
2021/10/29 07:50:25;;;;;;;12.35;4.80;;;;;;;20.47;52.37;98233.44;4437091;32;20092;-68
2021/10/29 07:52:52;;;;;;;12.43;4.75;;;;;;;20.65;51.88;98229.47;4438076;32;20025;-68
2021/10/29 07:55:20;;;;;;;9.60;4.50;;;;;;;20.66;51.88;98208.91;4437417;32;20033;-68
2021/10/29 07:57:47;;;;;;;7.00;4.10;;;;;;;20.37;52.27;98215.31;4436935;32;20063;-68
2021/10/29 08:00:15;;;;;;;8.57;3.70;;;;;;;20.53;52.05;98217.66;4435292;32;20140;-68
2021/10/29 08:02:41;;;;;;;9.85;4.15;;;;;;;20.71;51.71;98215.78;4436078;32;21105;-69
2021/10/29 08:05:08;;;;;;;9.70;3.70;;;;;;;20.53;51.46;98225.44;4435558;32;20477;-69
2021/10/29 08:07:34;;;;;;;13.23;4.50;;;;;;;20.81;51.29;98220.38;4438512;32;20025;-69
2021/10/29 08:10:03;;;;;;;11.93;4.40;;;;;;;21.01;50.67;98228.03;4437413;32;20017;-69
2021/10/29 08:12:30;;;;;;;12.98;4.40;;;;;;;20.87;51.02;98220.97;4438381;32;20148;-69
2021/10/29 08:14:56;;;;;;;13.07;4.30;;;;;;;21.05;50.46;98225.56;4436276;32;20063;-69
2021/10/29 08:17:22;;;;;;;8.77;4.53;;;;;;;21.14;50.25;98229.97;4436507;32;20405;-69
2021/10/29 08:19:49;;;;;;;9.43;4.22;;;;;;;20.67;51.04;98233.28;4437095;32;20103;-69
2021/10/29 08:22:16;;;;;;;13.18;4.80;;;;;;;20.71;51.21;98213.66;4434035;32;20539;-69
2021/10/29 08:24:42;;;;;;;13.55;4.12;;;;;;;21.10;50.55;98220.97;4435803;32;20037;-69
2021/10/29 08:27:08;;;;;;;10.15;4.53;;;;;;;21.24;50.12;98199.47;4426499;32;20460;-69
2021/10/29 08:29:36;;;;;;;9.75;3.95;;;;;;;21.39;50.09;98220.22;4424630;32;20160;-69
2021/10/29 08:32:03;;;;;;;12.85;4.90;;;;;;;21.72;49.47;98226.13;4427324;32;20107;-69
2021/10/29 08:34:28;;;;;;;14.18;5.78;;;;;;;21.40;49.54;98227.50;4428342;32;20029;-69
2021/10/29 08:36:56;;;;;;;9.15;4.28;;;;;;;21.69;48.97;98225.91;4425455;32;20088;-69
2021/10/29 08:39:22;;;;;;;14.05;4.65;;;;;;;21.93;48.52;98212.34;4428137;32;20022;-69
2021/10/29 08:41:48;;;;;;;9.82;4.28;;;;;;;21.79;48.42;98208.19;4420806;32;20347;-69
2021/10/29 08:44:16;;;;;;;11.95;5.18;;;;;;;21.80;48.46;98201.87;4427858;32;20105;-69
2021/10/29 08:46:43;;;;;;;12.90;4.20;;;;;;;21.68;49.11;98206.44;4427545;32;20718;-69
2021/10/29 08:49:10;;;;;;;12.40;4.82;;;;;;;21.22;50.53;98187.81;4424468;32;20034;-69
2021/10/29 08:51:37;;;;;;;11.68;4.80;;;;;;;21.31;50.67;98196.59;4424752;32;20084;-69
2021/10/29 08:54:05;;;;;;;11.73;5.03;;;;;;;21.36;50.60;98200.59;4422589;32;20045;-69
2021/10/29 08:56:32;;;;;;;14.90;5.37;;;;;;;21.43;50.67;98194.09;4426908;32;20029;-69
2021/10/29 08:59:18;;;;;;;12.02;4.53;;;;;;;21.69;50.00;98194.44;4425764;32;20045;-69
2021/10/29 09:04:56;;;;;;;11.20;4.57;;;;;;;22.42;48.13;98173.16;3985910;32;15025855;-70
2021/10/29 09:32:24;;;;;;;9.77;3.03;;;;;;;21.25;49.43;98135.19;4443544;32;20048;-70
2021/10/29 09:35:11;;;;;;;8.75;2.83;;;;;;;21.36;49.29;98129.06;4428705;32;20543;-70
2021/10/29 09:37:59;;;;;;;8.57;3.15;;;;;;;21.87;48.17;98125.91;4445423;32;20112;-70
2021/10/29 09:40:29;;;;;;;7.40;2.67;;;;;;;22.07;47.69;98134.22;4446903;32;20081;-70
2021/10/29 09:43:18;;;;;;;7.20;3.55;;;;;;;21.65;48.58;98124.59;4427648;32;20365;-70
2021/10/29 09:45:58;;;;;;;10.23;3.72;;;;;;;22.45;47.31;98116.78;4443787;32;20088;-70
2021/10/29 09:48:36;;;;;;;7.60;2.83;;;;;;;22.81;46.39;98120.00;4437684;32;21195;-70
2021/10/29 09:51:08;;;;;;;6.22;2.22;;;;;;;23.06;45.77;98127.25;4443319;32;20078;-70
2021/10/29 09:56:22;;;;;;;9.65;2.33;;;;;;;24.10;43.26;98117.34;3999143;31;15017350;-70
2021/10/29 09:58:53;;;;;;;5.05;1.70;;;;;;;24.10;43.26;98117.34;4463644;32;20099;-70
2021/10/29 10:01:21;;;;;;;6.05;1.80;;;;;;;23.79;43.21;98110.44;4462109;32;20061;-71
2021/10/29 10:03:51;;;;;;;6.57;1.95;;;;;;;23.54;43.16;98096.19;4461057;32;20076;-71
2021/10/29 10:06:19;;;;;;;4.47;1.85;;;;;;;23.30;43.64;98083.44;4466827;32;20428;-71
2021/10/29 10:08:46;;;;;;;7.37;1.83;;;;;;;23.34;43.93;98089.53;4465644;32;20187;-70
2021/10/29 10:11:14;;;;;;;8.55;1.80;;;;;;;23.16;43.95;98085.06;4462561;32;20072;-71
2021/10/29 10:13:41;;;;;;;3.70;1.77;;;;;;;23.35;43.37;98084.56;4462619;32;20060;-71
2021/10/29 10:16:09;;;;;;;5.70;1.48;;;;;;;23.27;43.37;98093.22;4448295;32;20045;-71
2021/10/29 10:18:35;;;;;;;8.20;1.70;;;;;;;22.79;44.05;98091.91;4467246;32;20076;-71
2021/10/29 10:21:04;;;;;;;5.37;1.40;;;;;;;22.81;43.96;98103.56;4458789;32;20454;-70
2021/10/29 10:23:36;;;;;;;6.90;1.62;;;;;;;22.94;43.45;98088.91;4462811;32;20103;-70
2021/10/29 10:48:47;;;;;;;3.03;1.00;;;;;;;22.52;45.56;98015.72;3953285;31;15707448;-71
2021/10/29 10:59:39;;;;;;;3.80;1.00;;;;;;;23.37;43.98;98015.81;4003597;31;15019149;-71
2021/10/29 11:11:16;;;;;;;3.50;0.47;;;;;;;23.63;42.14;98028.72;3983580;32;15021863;-71
2021/10/29 11:21:50;;;;;;;4.87;0.85;;;;;;;23.10;42.31;98041.53;3984752;32;15021881;-72
2021/10/29 11:24:27;;;;;;;2.58;0.60;;;;;;;23.10;42.31;98041.53;4433568;32;20098;-72
2021/10/29 11:27:18;;;;;;;0.60;0.30;;;;;;;22.54;43.25;98047.41;4436251;32;20088;-73
2021/10/29 11:29:47;;;;;;;5.28;0.93;;;;;;;22.38;42.95;98043.09;4430464;32;20112;-72
2021/10/29 11:32:16;;;;;;;4.15;0.60;;;;;;;23.06;42.37;98054.78;4432130;32;20038;-72
2021/10/29 11:34:44;;;;;;;3.72;0.80;;;;;;;22.78;42.49;98050.28;4433671;32;20377;-72
2021/10/29 11:37:10;;;;;;;4.15;0.60;;;;;;;23.08;42.01;98054.94;4434902;32;20029;-72
2021/10/29 11:39:37;;;;;;;0.65;0.37;;;;;;;22.39;42.48;98079.78;4435437;32;20146;-72
2021/10/29 11:42:03;;;;;;;1.75;0.30;;;;;;;22.91;41.88;98072.13;4432609;32;20327;-72
2021/10/29 11:44:28;;;;;;;6.78;0.50;;;;;;;22.62;42.06;98071.81;4433449;32;20025;-71
2021/10/29 11:46:55;;;;;;;3.42;0.35;;;;;;;22.13;42.81;98079.56;4432350;32;20087;-71
2021/10/29 11:49:25;;;;;;;3.72;0.20;;;;;;;21.79;43.57;98097.31;4432745;32;20044;-71
2021/10/29 11:52:10;;;;;;;1.37;0.20;;;;;;;22.64;42.40;98102.75;4436859;32;20084;-72
2021/10/29 11:54:41;;;;;;;1.98;0.32;;;;;;;22.06;43.00;98104.03;4433653;32;20051;-71
2021/10/29 12:07:53;;;;;;;2.87;0.50;;;;;;;22.04;42.82;98126.00;4454787;32;20063;-71
2021/10/29 12:10:21;;;;;;;4.57;0.50;;;;;;;22.64;41.85;98129.31;4453216;32;20037;-71
2021/10/29 12:12:49;;;;;;;1.75;0.28;;;;;;;22.69;42.12;98162.72;4452038;32;20090;-69
2021/10/29 12:15:18;;;;;;;1.85;0.40;;;;;;;21.79;41.72;98191.78;4452091;32;20095;-69
2021/10/29 12:17:57;;;;;;;1.70;0.70;;;;;;;21.08;43.20;98192.22;4451954;32;20118;-70
2021/10/29 12:20:28;;;;;;;1.35;0.15;;;;;;;20.57;44.16;98200.88;4432450;32;20033;-70
2021/10/29 12:22:58;;;;;;;1.67;0.40;;;;;;;19.78;45.83;98203.78;4452919;32;20044;-70
2021/10/29 12:25:35;;;;;;;2.35;0.37;;;;;;;20.55;44.47;98214.97;4454803;32;20311;-70
2021/10/29 13:04:18;;;;;;;4.37;1.70;;;;;;;20.99;44.82;98333.63;3983199;32;15023383;-70
2021/10/29 13:12:04;;;;;;;13.15;4.68;;;;;;;21.03;44.76;98362.63;3982085;32;15024848;-70
2021/10/29 13:14:35;;;;;;;4.85;1.65;;;;;;;21.03;44.76;98362.63;4436794;32;20069;-70
2021/10/29 13:17:03;;;;;;;3.67;1.87;;;;;;;20.34;45.65;98368.56;4436763;32;20141;-70
2021/10/29 13:28:02;;;;;;;2.15;1.10;;;;;;;23.22;39.20;98386.09;3941461;32;15723606;-71
2021/10/29 14:28:33;;;;;;;3.87;0.45;;;;;;;23.17;35.81;98421.53;3983314;32;15024642;-72
2021/10/29 14:30:41;;;;;;;;;;;;;;;22.93;36.62;98430.81;4437966;32;20057;-72
2021/10/29 14:33:17;;;;;;;2.90;0.50;;;;;;;23.25;36.08;98423.03;4437899;32;19945;-72
2021/10/29 14:35:45;;;;;;;;;;;;;;;22.51;37.13;98421.16;4439063;32;20078;-72
2021/10/29 14:41:01;;;;;;;2.80;0.60;;;;;;;22.27;37.53;98431.09;4438395;32;20353;-72
2021/10/29 14:43:36;;;;;;;2.40;0.40;;;;;;;22.05;38.21;98431.87;4435275;32;20048;-72
2021/10/29 15:06:07;;;;;;;2.58;0.80;;;;;;;25.52;32.90;98505.25;3983824;32;15022354;-71
2021/10/29 15:24:52;;;;;;;4.25;0.80;;;;;;;27.50;28.66;98566.50;4440464;32;20124;-71
2021/10/29 15:29:59;;;;;;;2.12;0.50;;;;;;;24.55;33.33;98557.44;3984183;32;15022115;-72
2021/10/29 15:46:18;;;;;;;;;;;;;;;21.59;38.79;98576.22;4435396;32;20109;-72
2021/10/29 15:48:49;;;;;;;4.45;0.62;;;;;;;21.73;38.19;98580.50;4435102;32;19985;-72
2021/10/29 15:51:15;;;;;;;4.37;0.70;;;;;;;21.04;39.36;98575.75;4433866;32;20111;-72
2021/10/29 15:53:43;;;;;;;2.80;0.70;;;;;;;21.06;39.52;98578.84;4435798;32;20054;-72
2021/10/29 15:56:15;;;;;;;2.72;0.90;;;;;;;21.22;39.19;98580.44;4433393;32;20089;-72
2021/10/29 15:58:48;;;;;;;4.55;0.93;;;;;;;21.37;39.37;98591.97;4433760;32;20484;-72
2021/10/29 16:01:21;;;;;;;3.55;0.90;;;;;;;21.53;38.96;98589.94;4434607;32;20064;-72
2021/10/29 16:17:36;;;;;;;6.75;1.37;;;;;;;21.01;40.67;98611.19;4435798;32;20029;-71
2021/10/29 16:20:03;;;;;;;6.05;1.75;;;;;;;21.19;40.26;98618.75;4431580;32;20084;-72
2021/10/29 16:22:33;;;;;;;4.37;0.95;;;;;;;21.36;39.97;98616.19;4436636;32;20093;-71
2021/10/29 16:25:05;;;;;;;9.18;1.27;;;;;;;21.07;40.24;98622.47;4431392;32;20450;-72
2021/10/29 16:27:41;;;;;;;1.98;0.85;;;;;;;21.29;40.16;98624.72;4432602;32;20116;-71
2021/10/29 16:30:07;;;;;;;7.72;1.30;;;;;;;21.18;40.29;98625.81;4433512;32;20061;-71
2021/10/29 16:33:07;;;;;;;4.62;1.50;;;;;;;21.14;40.36;98627.50;4433470;32;20079;-71
2021/10/29 16:35:19;;;;;;;;;;;;;;;20.97;40.63;98632.91;4434179;32;20451;-71
2021/10/29 16:37:46;;;;;;;3.70;0.95;;;;;;;21.40;39.75;98638.72;4434917;32;19970;-71
2021/10/29 16:40:13;;;;;;;7.70;1.67;;;;;;;20.99;40.44;98648.16;4432205;32;20037;-71
2021/10/29 16:42:39;;;;;;;4.45;1.30;;;;;;;20.99;40.81;98647.41;4433202;32;20236;-71
2021/10/29 16:45:07;;;;;;;10.75;1.75;;;;;;;20.93;40.66;98638.94;4426652;32;20124;-71
2021/10/29 16:47:33;;;;;;;6.30;1.77;;;;;;;21.05;40.58;98654.50;4424548;32;20091;-71
2021/10/29 16:49:59;;;;;;;3.90;1.52;;;;;;;20.73;41.04;98650.38;4419182;32;20766;-71
2021/10/29 16:52:28;;;;;;;6.75;1.60;;;;;;;20.81;41.06;98651.22;4421584;32;20053;-71
2021/10/29 16:54:53;;;;;;;6.70;1.85;;;;;;;20.86;40.89;98661.75;4424739;32;20498;-71
2021/10/29 16:57:20;;;;;;;9.65;1.98;;;;;;;20.60;41.54;98654.09;4425695;32;20091;-71
2021/10/29 16:59:46;;;;;;;7.75;2.08;;;;;;;20.69;41.39;98665.03;4419678;32;20080;-71
2021/10/29 17:02:12;;;;;;;7.10;1.80;;;;;;;20.49;41.80;98662.94;4425294;32;20145;-70